Wetterdaten: Woche 27.04.26 - 03.05.26 (KW18)
Datum Zeit Temp. A. Feuchte A. Luftdruck Niederschlag Windgeschw. Windrichtung Sonnenschein Taupunkt Windchill Windböen
27.04.2026 00:00 8,4 °C 25 % 1023,9 hPa 0,0 l/m² 0,0 km/h (0 Bft) N 0,00 h -10,5 °C 8,4 °C 0,0 km/h (0 Bft)
27.04.2026 01:00 7,8 °C 26 % 1024,1 hPa 0,0 l/m² 0,0 km/h (0 Bft) N 0,00 h -10,7 °C 7,8 °C 0,0 km/h (0 Bft)
27.04.2026 02:00 7,3 °C 27 % 1023,7 hPa 0,0 l/m² 0,0 km/h (0 Bft) N 0,00 h -10,7 °C 7,3 °C 0,0 km/h (0 Bft)
27.04.2026 03:00 6,8 °C 28 % 1023,4 hPa 0,0 l/m² 0,0 km/h (0 Bft) N 0,00 h -10,2 °C 6,8 °C 0,0 km/h (0 Bft)
27.04.2026 04:00 6,3 °C 30 % 1023,0 hPa 0,0 l/m² 0,0 km/h (0 Bft) N 0,00 h -10,2 °C 6,3 °C 0,0 km/h (0 Bft)
27.04.2026 05:00 5,9 °C 30 % 1022,5 hPa 0,0 l/m² 0,0 km/h (0 Bft) N 0,00 h -10,2 °C 5,9 °C 0,0 km/h (0 Bft)
27.04.2026 06:00 5,5 °C 34 % 1022,3 hPa 0,0 l/m² 0,0 km/h (0 Bft) N 0,00 h -9,2 °C 5,5 °C 0,0 km/h (0 Bft)
27.04.2026 07:00 6,1 °C 38 % 1022,3 hPa 0,0 l/m² 0,0 km/h (0 Bft) N 0,00 h -7,0 °C 6,1 °C 0,0 km/h (0 Bft)
27.04.2026 08:00 7,7 °C 39 % 1022,0 hPa 0,0 l/m² 0,1 km/h (0 Bft) N 0,00 h -5,3 °C 7,7 °C 0,2 km/h (0 Bft)
27.04.2026 09:00 10,8 °C 39 % 1021,7 hPa 0,0 l/m² 0,5 km/h (0 Bft) N-NO 0,00 h -2,7 °C 10,8 °C 1,5 km/h (1 Bft)
27.04.2026 10:00 13,9 °C 35 % 1021,7 hPa 0,0 l/m² 1,4 km/h (1 Bft) SW 0,00 h -1,2 °C 13,9 °C 2,3 km/h (1 Bft)
27.04.2026 11:00 16,6 °C 33 % 1021,6 hPa 0,0 l/m² 1,6 km/h (1 Bft) W 0,00 h 0,4 °C 16,6 °C 2,1 km/h (1 Bft)
27.04.2026 12:00 18,3 °C 32 % 1021,1 hPa 0,0 l/m² 1,7 km/h (1 Bft) O-NO 0,00 h 1,1 °C 18,3 °C 2,1 km/h (1 Bft)
27.04.2026 13:00 19,3 °C 30 % 1020,7 hPa 0,0 l/m² 1,9 km/h (1 Bft) W-SW 0,33 h 1,2 °C 19,3 °C 2,4 km/h (1 Bft)
27.04.2026 14:00 19,8 °C 29 % 1020,7 hPa 0,0 l/m² 1,4 km/h (1 Bft) SW 1,00 h 1,2 °C 19,8 °C 2,2 km/h (1 Bft)
27.04.2026 15:00 20,3 °C 28 % 1020,5 hPa 0,0 l/m² 1,3 km/h (1 Bft) W-SW 1,00 h 1,3 °C 20,3 °C 2,0 km/h (1 Bft)
27.04.2026 16:00 20,6 °C 28 % 1019,9 hPa 0,0 l/m² 1,0 km/h (0 Bft) W-SW 1,00 h 1,4 °C 20,6 °C 1,3 km/h (1 Bft)
27.04.2026 17:00 20,4 °C 28 % 1019,6 hPa 0,0 l/m² 0,4 km/h (0 Bft) W-NW 1,00 h 1,2 °C 20,4 °C 0,6 km/h (0 Bft)
27.04.2026 18:00 19,4 °C 27 % 1019,5 hPa 0,0 l/m² 0,2 km/h (0 Bft) N 1,00 h -0,0 °C 19,4 °C 0,5 km/h (0 Bft)
27.04.2026 19:00 17,2 °C 27 % 1019,4 hPa 0,0 l/m² 0,0 km/h (0 Bft) N 0,37 h -1,8 °C 17,2 °C 0,0 km/h (0 Bft)
27.04.2026 20:00 13,5 °C 30 % 1019,9 hPa 0,0 l/m² 0,0 km/h (0 Bft) N 0,00 h -3,7 °C 13,5 °C 0,0 km/h (0 Bft)
27.04.2026 21:00 12,1 °C 31 % 1020,2 hPa 0,0 l/m² 0,0 km/h (0 Bft) N 0,00 h -4,5 °C 12,1 °C 0,0 km/h (0 Bft)
27.04.2026 22:00 11,7 °C 32 % 1020,3 hPa 0,0 l/m² 0,0 km/h (0 Bft) N 0,00 h -4,6 °C 11,7 °C 0,0 km/h (0 Bft)
27.04.2026 23:00 11,2 °C 31 % 1020,1 hPa 0,0 l/m² 0,0 km/h (0 Bft) N 0,00 h -5,2 °C 11,2 °C 0,0 km/h (0 Bft)
28.04.2026 00:00 10,2 °C 31 % 1019,8 hPa 0,0 l/m² 0,0 km/h (0 Bft) N 0,00 h -6,3 °C 10,2 °C 0,0 km/h (0 Bft)
28.04.2026 01:00 9,5 °C 31 % 1019,8 hPa 0,0 l/m² 0,0 km/h (0 Bft) N 0,00 h -6,9 °C 9,5 °C 0,0 km/h (0 Bft)
28.04.2026 02:00 8,9 °C 31 % 1019,5 hPa 0,0 l/m² 0,0 km/h (0 Bft) N 0,00 h -7,2 °C 8,9 °C 0,0 km/h (0 Bft)
28.04.2026 03:00 8,4 °C 32 % 1019,3 hPa 0,0 l/m² 0,0 km/h (0 Bft) N 0,00 h -7,1 °C 8,4 °C 0,0 km/h (0 Bft)
28.04.2026 04:00 8,2 °C 34 % 1019,1 hPa 0,0 l/m² 0,0 km/h (0 Bft) N 0,00 h -6,8 °C 8,2 °C 0,0 km/h (0 Bft)
28.04.2026 05:00 7,3 °C 37 % 1019,2 hPa 0,0 l/m² 0,0 km/h (0 Bft) N 0,00 h -6,3 °C 7,3 °C 0,0 km/h (0 Bft)
28.04.2026 06:00 7,7 °C 38 % 1019,2 hPa 0,0 l/m² 0,0 km/h (0 Bft) N 0,00 h -5,6 °C 7,7 °C 0,0 km/h (0 Bft)
28.04.2026 07:00 8,9 °C 40 % 1019,4 hPa 0,0 l/m² 0,0 km/h (0 Bft) N 0,00 h -3,9 °C 8,9 °C 0,1 km/h (0 Bft)
28.04.2026 08:00 10,7 °C 39 % 1019,7 hPa 0,0 l/m² 0,1 km/h (0 Bft) N 0,00 h -2,7 °C 10,7 °C 0,3 km/h (0 Bft)
28.04.2026 09:00 12,3 °C 36 % 1019,8 hPa 0,0 l/m² 0,3 km/h (0 Bft) N 0,00 h -2,2 °C 12,3 °C 0,7 km/h (0 Bft)
28.04.2026 10:00 13,8 °C 36 % 1019,7 hPa 0,0 l/m² 0,8 km/h (0 Bft) SW 0,00 h -1,0 °C 13,8 °C 1,1 km/h (1 Bft)
28.04.2026 11:00 15,9 °C 35 % 1019,8 hPa 0,0 l/m² 1,2 km/h (1 Bft) W 0,00 h 0,5 °C 15,9 °C 2,0 km/h (1 Bft)
28.04.2026 12:00 17,9 °C 33 % 1019,4 hPa 0,0 l/m² 1,2 km/h (1 Bft) W 0,07 h 1,4 °C 17,9 °C 2,0 km/h (1 Bft)
28.04.2026 13:00 19,3 °C 31 % 1019,1 hPa 0,0 l/m² 1,1 km/h (1 Bft) W-SW 0,80 h 1,6 °C 19,3 °C 1,7 km/h (1 Bft)
28.04.2026 14:00 19,7 °C 29 % 1018,9 hPa 0,0 l/m² 1,1 km/h (1 Bft) W-NW 1,00 h 1,1 °C 19,7 °C 1,6 km/h (1 Bft)
28.04.2026 15:00 19,6 °C 28 % 1018,7 hPa 0,0 l/m² 1,3 km/h (1 Bft) W-SW 1,00 h 0,7 °C 19,6 °C 2,3 km/h (1 Bft)
28.04.2026 16:00 19,8 °C 28 % 1018,5 hPa 0,0 l/m² 0,9 km/h (0 Bft) NW 1,00 h 0,7 °C 19,8 °C 1,7 km/h (1 Bft)
28.04.2026 17:00 18,8 °C 27 % 1018,3 hPa 0,0 l/m² 0,3 km/h (0 Bft) N 0,67 h -0,6 °C 18,8 °C 0,8 km/h (0 Bft)
28.04.2026 18:00 17,3 °C 27 % 1018,4 hPa 0,0 l/m² 0,0 km/h (0 Bft) N 0,00 h -1,7 °C 17,3 °C 0,1 km/h (0 Bft)
28.04.2026 19:00 15,2 °C 30 % 1018,5 hPa 0,0 l/m² 0,0 km/h (0 Bft) N 0,00 h -2,4 °C 15,2 °C 0,1 km/h (0 Bft)
28.04.2026 20:00 14,1 °C 30 % 1019,2 hPa 0,0 l/m² 0,1 km/h (0 Bft) N 0,00 h -3,1 °C 14,1 °C 0,0 km/h (0 Bft)
28.04.2026 21:00 12,5 °C 29 % 1020,0 hPa 0,0 l/m² 0,0 km/h (0 Bft) N 0,00 h -4,9 °C 12,5 °C 0,0 km/h (0 Bft)
28.04.2026 22:00 12,3 °C 29 % 1020,3 hPa 0,0 l/m² 0,1 km/h (0 Bft) N 0,00 h -5,2 °C 12,3 °C 0,4 km/h (0 Bft)
28.04.2026 23:00 12,1 °C 29 % 1020,9 hPa 0,0 l/m² 0,1 km/h (0 Bft) N 0,00 h -5,5 °C 12,1 °C 0,4 km/h (0 Bft)
29.04.2026 00:00 11,3 °C 28 % 1021,2 hPa 0,0 l/m² 0,1 km/h (0 Bft) N 0,00 h -6,5 °C 11,3 °C 0,3 km/h (0 Bft)
29.04.2026 01:00 10,5 °C 28 % 1021,3 hPa 0,0 l/m² 0,2 km/h (0 Bft) N 0,00 h -7,4 °C 10,5 °C 0,3 km/h (0 Bft)
29.04.2026 02:00 9,9 °C 26 % 1021,3 hPa 0,0 l/m² 0,2 km/h (0 Bft) N 0,00 h -8,6 °C 9,9 °C 0,3 km/h (0 Bft)
29.04.2026 03:00 9,3 °C 25 % 1021,1 hPa 0,0 l/m² 0,1 km/h (0 Bft) N 0,00 h -9,6 °C 9,3 °C 0,0 km/h (0 Bft)
29.04.2026 04:00 8,8 °C 25 % 1021,1 hPa 0,0 l/m² 0,0 km/h (0 Bft) N 0,00 h -10,1 °C 8,8 °C 0,1 km/h (0 Bft)
29.04.2026 05:00 8,1 °C 25 % 1021,2 hPa 0,0 l/m² 0,0 km/h (0 Bft) N 0,00 h -10,7 °C 8,1 °C 0,1 km/h (0 Bft)
29.04.2026 06:00 8,1 °C 25 % 1021,5 hPa 0,0 l/m² 0,2 km/h (0 Bft) N 0,00 h -10,7 °C 8,1 °C 0,1 km/h (0 Bft)
29.04.2026 07:00 7,9 °C 25 % 1022,0 hPa 0,0 l/m² 0,5 km/h (0 Bft) N 0,00 h -10,9 °C 7,9 °C 0,9 km/h (0 Bft)
29.04.2026 08:00 8,1 °C 25 % 1022,2 hPa 0,0 l/m² 1,0 km/h (0 Bft) W 0,00 h -10,7 °C 8,1 °C 1,8 km/h (1 Bft)
29.04.2026 09:00 9,3 °C 25 % 1022,3 hPa 0,0 l/m² 0,8 km/h (0 Bft) O 0,00 h -9,7 °C 9,3 °C 1,4 km/h (1 Bft)
29.04.2026 10:00 10,6 °C 25 % 1022,5 hPa 0,0 l/m² 1,7 km/h (1 Bft) W 0,00 h -8,5 °C 10,6 °C 2,4 km/h (1 Bft)
29.04.2026 11:00 11,6 °C 25 % 1022,6 hPa 0,0 l/m² 1,4 km/h (1 Bft) W-SW 0,67 h -7,7 °C 11,6 °C 2,4 km/h (1 Bft)
29.04.2026 12:00 12,8 °C 25 % 1022,3 hPa 0,0 l/m² 2,1 km/h (1 Bft) W 0,47 h -6,7 °C 12,8 °C 3,0 km/h (1 Bft)
29.04.2026 13:00 14,8 °C 25 % 1021,8 hPa 0,0 l/m² 2,7 km/h (1 Bft) W 0,43 h -5,0 °C 14,8 °C 3,7 km/h (1 Bft)
29.04.2026 14:00 15,3 °C 25 % 1021,7 hPa 0,0 l/m² 2,2 km/h (1 Bft) NW 1,00 h -4,6 °C 15,3 °C 3,0 km/h (1 Bft)
29.04.2026 15:00 16,4 °C 25 % 1021,4 hPa 0,0 l/m² 2,5 km/h (1 Bft) W 1,00 h -3,6 °C 16,4 °C 3,7 km/h (1 Bft)
29.04.2026 16:00 17,2 °C 25 % 1021,6 hPa 0,0 l/m² 2,5 km/h (1 Bft) W-SW 1,00 h -3,0 °C 17,2 °C 3,8 km/h (1 Bft)
29.04.2026 17:00 16,8 °C 25 % 1021,7 hPa 0,0 l/m² 1,9 km/h (1 Bft) W-SW 1,00 h -3,3 °C 16,8 °C 3,1 km/h (1 Bft)
29.04.2026 18:00 15,3 °C 25 % 1021,9 hPa 0,0 l/m² 1,4 km/h (1 Bft) W-SW 1,00 h -4,6 °C 15,3 °C 2,2 km/h (1 Bft)
29.04.2026 19:00 12,4 °C 25 % 1022,7 hPa 0,0 l/m² 1,2 km/h (1 Bft) W-SW 0,27 h -7,1 °C 12,4 °C 1,8 km/h (1 Bft)
29.04.2026 20:00 9,7 °C 25 % 1024,0 hPa 0,0 l/m² 0,8 km/h (0 Bft) W-SW 0,00 h -9,4 °C 9,7 °C 1,4 km/h (1 Bft)
29.04.2026 21:00 7,7 °C 25 % 1025,6 hPa 0,0 l/m² 0,2 km/h (0 Bft) N 0,00 h -11,0 °C 7,7 °C 0,4 km/h (0 Bft)
29.04.2026 22:00 6,8 °C 25 % 1026,7 hPa 0,0 l/m² 0,3 km/h (0 Bft) N 0,00 h -11,8 °C 6,8 °C 0,6 km/h (0 Bft)
29.04.2026 23:00 5,7 °C 25 % 1027,4 hPa 0,0 l/m² 0,3 km/h (0 Bft) N 0,00 h -12,8 °C 5,7 °C 0,4 km/h (0 Bft)
30.04.2026 00:00 4,5 °C 25 % 1027,6 hPa 0,0 l/m² 0,5 km/h (0 Bft) S-SO 0,00 h -13,7 °C 4,5 °C 0,8 km/h (0 Bft)
30.04.2026 01:00 3,9 °C 25 % 1027,8 hPa 0,0 l/m² 0,7 km/h (0 Bft) SO 0,00 h -14,3 °C 3,9 °C 1,4 km/h (1 Bft)
30.04.2026 02:00 3,3 °C 25 % 1027,6 hPa 0,0 l/m² 0,7 km/h (0 Bft) W 0,00 h -14,8 °C 3,3 °C 1,2 km/h (1 Bft)
30.04.2026 03:00 2,7 °C 25 % 1027,8 hPa 0,0 l/m² 0,8 km/h (0 Bft) SW 0,00 h -15,3 °C 2,7 °C 1,2 km/h (1 Bft)
30.04.2026 04:00 2,6 °C 25 % 1027,8 hPa 0,0 l/m² 0,9 km/h (0 Bft) S 0,00 h -15,4 °C 2,6 °C 1,3 km/h (1 Bft)
30.04.2026 05:00 2,2 °C 25 % 1028,3 hPa 0,0 l/m² 0,9 km/h (0 Bft) W-SW 0,00 h -15,8 °C 2,2 °C 1,4 km/h (1 Bft)
30.04.2026 06:00 2,5 °C 25 % 1028,1 hPa 0,0 l/m² 1,2 km/h (1 Bft) S 0,00 h -15,5 °C 2,5 °C 1,4 km/h (1 Bft)
30.04.2026 07:00 3,4 °C 25 % 1028,3 hPa 0,0 l/m² 1,7 km/h (1 Bft) SO 0,00 h -14,7 °C 3,4 °C 2,6 km/h (1 Bft)
30.04.2026 08:00 4,5 °C 25 % 1028,4 hPa 0,0 l/m² 1,6 km/h (1 Bft) S-SW 0,00 h -13,8 °C 4,5 °C 2,7 km/h (1 Bft)
30.04.2026 09:00 6,2 °C 25 % 1028,4 hPa 0,0 l/m² 2,5 km/h (1 Bft) SW 0,00 h -12,3 °C 6,2 °C 3,4 km/h (1 Bft)
30.04.2026 10:00 7,7 °C 25 % 1028,4 hPa 0,0 l/m² 2,9 km/h (1 Bft) W-SW 0,00 h -11,0 °C 7,7 °C 3,8 km/h (1 Bft)
30.04.2026 11:00 9,5 °C 25 % 1028,1 hPa 0,0 l/m² 3,3 km/h (1 Bft) SW 0,00 h -9,5 °C 9,5 °C 4,5 km/h (1 Bft)
30.04.2026 12:00 11,2 °C 25 % 1027,7 hPa 0,0 l/m² 3,4 km/h (1 Bft) W 0,00 h -8,0 °C 11,2 °C 5,5 km/h (1 Bft)
30.04.2026 13:00 12,7 °C 25 % 1027,5 hPa 0,0 l/m² 3,3 km/h (1 Bft) W-SW 0,33 h -6,8 °C 12,7 °C 4,3 km/h (1 Bft)
30.04.2026 14:00 13,8 °C 25 % 1027,2 hPa 0,0 l/m² 3,0 km/h (1 Bft) W-SW 1,00 h -5,8 °C 13,8 °C 4,1 km/h (1 Bft)
30.04.2026 15:00 14,6 °C 25 % 1026,8 hPa 0,0 l/m² 2,8 km/h (1 Bft) NW 1,00 h -5,2 °C 14,6 °C 3,6 km/h (1 Bft)
30.04.2026 16:00 15,1 °C 25 % 1026,5 hPa 0,0 l/m² 2,5 km/h (1 Bft) W 1,00 h -4,7 °C 15,1 °C 3,9 km/h (1 Bft)
30.04.2026 17:00 15,1 °C 25 % 1026,2 hPa 0,0 l/m² 2,5 km/h (1 Bft) W-SW 1,00 h -4,8 °C 15,1 °C 3,1 km/h (1 Bft)
30.04.2026 18:00 14,6 °C 25 % 1026,2 hPa 0,0 l/m² 1,4 km/h (1 Bft) W 1,00 h -5,2 °C 14,6 °C 1,4 km/h (1 Bft)
30.04.2026 19:00 12,1 °C 25 % 1026,5 hPa 0,0 l/m² 0,3 km/h (0 Bft) W 0,33 h -7,3 °C 12,1 °C 0,5 km/h (0 Bft)
30.04.2026 20:00 8,6 °C 25 % 1026,6 hPa 0,0 l/m² 0,0 km/h (0 Bft) N 0,00 h -10,3 °C 8,6 °C 0,0 km/h (0 Bft)
30.04.2026 21:00 7,5 °C 25 % 1026,9 hPa 0,0 l/m² 0,0 km/h (0 Bft) N 0,00 h -11,2 °C 7,5 °C 0,0 km/h (0 Bft)
30.04.2026 22:00 7,1 °C 25 % 1027,3 hPa 0,0 l/m² 0,0 km/h (0 Bft) N 0,00 h -11,6 °C 7,1 °C 0,1 km/h (0 Bft)
30.04.2026 23:00 7,2 °C 25 % 1027,2 hPa 0,0 l/m² 0,0 km/h (0 Bft) N 0,00 h -11,4 °C 7,2 °C 0,0 km/h (0 Bft)
01.05.2026 00:00 7,3 °C 25 % 1027,1 hPa 0,0 l/m² 0,1 km/h (0 Bft) N 0,00 h -11,4 °C 7,3 °C 0,3 km/h (0 Bft)
01.05.2026 01:00 7,0 °C 25 % 1026,9 hPa 0,0 l/m² 0,1 km/h (0 Bft) N 0,00 h -11,7 °C 7,0 °C 0,2 km/h (0 Bft)
01.05.2026 02:00 7,4 °C 25 % 1026,6 hPa 0,0 l/m² 0,6 km/h (0 Bft) N 0,00 h -11,3 °C 7,4 °C 1,4 km/h (1 Bft)
01.05.2026 03:00 7,0 °C 25 % 1026,4 hPa 0,0 l/m² 0,2 km/h (0 Bft) N 0,00 h -11,7 °C 7,0 °C 0,2 km/h (0 Bft)
01.05.2026 04:00 6,5 °C 25 % 1026,2 hPa 0,0 l/m² 0,2 km/h (0 Bft) N 0,00 h -12,1 °C 6,5 °C 0,2 km/h (0 Bft)
01.05.2026 05:00 6,4 °C 25 % 1026,0 hPa 0,0 l/m² 0,2 km/h (0 Bft) N 0,00 h -12,2 °C 6,4 °C 0,4 km/h (0 Bft)
01.05.2026 06:00 6,8 °C 25 % 1026,0 hPa 0,0 l/m² 0,4 km/h (0 Bft) N 0,00 h -11,7 °C 6,8 °C 0,7 km/h (0 Bft)
01.05.2026 07:00 8,5 °C 26 % 1026,3 hPa 0,0 l/m² 0,8 km/h (0 Bft) O-SO 0,00 h -9,9 °C 8,5 °C 1,6 km/h (1 Bft)
01.05.2026 08:00 10,2 °C 26 % 1026,6 hPa 0,0 l/m² 1,2 km/h (1 Bft) NO 0,00 h -8,4 °C 10,2 °C 1,4 km/h (1 Bft)
01.05.2026 09:00 12,0 °C 27 % 1026,9 hPa 0,0 l/m² 1,4 km/h (1 Bft) W 0,00 h -6,5 °C 12,0 °C 2,5 km/h (1 Bft)
01.05.2026 10:00 13,6 °C 27 % 1027,0 hPa 0,0 l/m² 2,0 km/h (1 Bft) SW 0,00 h -4,8 °C 13,6 °C 2,9 km/h (1 Bft)
01.05.2026 11:00 15,3 °C 28 % 1026,9 hPa 0,0 l/m² 2,4 km/h (1 Bft) W-SW 0,00 h -3,0 °C 15,3 °C 3,5 km/h (1 Bft)
01.05.2026 12:00 17,0 °C 29 % 1026,6 hPa 0,0 l/m² 2,4 km/h (1 Bft) W 0,00 h -1,3 °C 17,0 °C 3,4 km/h (1 Bft)
01.05.2026 13:00 18,3 °C 29 % 1026,3 hPa 0,0 l/m² 2,6 km/h (1 Bft) W-SW 0,33 h -0,1 °C 18,3 °C 3,7 km/h (1 Bft)
01.05.2026 14:00 19,3 °C 29 % 1025,7 hPa 0,0 l/m² 2,3 km/h (1 Bft) NW 1,00 h 0,8 °C 19,3 °C 3,0 km/h (1 Bft)
01.05.2026 15:00 19,8 °C 29 % 1025,3 hPa 0,0 l/m² 2,4 km/h (1 Bft) W-SW 1,00 h 1,2 °C 19,8 °C 3,4 km/h (1 Bft)
01.05.2026 16:00 20,0 °C 29 % 1025,1 hPa 0,0 l/m² 2,2 km/h (1 Bft) S 1,00 h 1,3 °C 20,0 °C 2,4 km/h (1 Bft)
01.05.2026 17:00 20,1 °C 29 % 1024,9 hPa 0,0 l/m² 1,9 km/h (1 Bft) W-SW 1,00 h 1,4 °C 20,1 °C 2,5 km/h (1 Bft)
01.05.2026 18:00 20,1 °C 28 % 1024,7 hPa 0,0 l/m² 1,4 km/h (1 Bft) W-SW 1,00 h 1,2 °C 20,1 °C 1,9 km/h (1 Bft)
01.05.2026 19:00 18,0 °C 28 % 1024,5 hPa 0,0 l/m² 0,4 km/h (0 Bft) S-SO 0,33 h -0,7 °C 18,0 °C 0,4 km/h (0 Bft)
01.05.2026 20:00 14,6 °C 30 % 1024,8 hPa 0,0 l/m² 0,0 km/h (0 Bft) N 0,00 h -2,8 °C 14,6 °C 0,1 km/h (0 Bft)
01.05.2026 21:00 13,9 °C 31 % 1025,0 hPa 0,0 l/m² 0,1 km/h (0 Bft) N 0,00 h -3,0 °C 13,9 °C 0,4 km/h (0 Bft)
01.05.2026 22:00 13,5 °C 31 % 1025,0 hPa 0,0 l/m² 0,0 km/h (0 Bft) N 0,00 h -3,3 °C 13,5 °C 0,2 km/h (0 Bft)
01.05.2026 23:00 13,9 °C 32 % 1024,9 hPa 0,0 l/m² 0,1 km/h (0 Bft) N 0,00 h -2,5 °C 13,9 °C 0,2 km/h (0 Bft)
02.05.2026 00:00 14,0 °C 32 % 1024,7 hPa 0,0 l/m² 0,4 km/h (0 Bft) N 0,00 h -2,4 °C 14,0 °C 1,0 km/h (0 Bft)
02.05.2026 01:00 14,7 °C 32 % 1024,4 hPa 0,0 l/m² 0,9 km/h (0 Bft) W-SW 0,00 h -1,8 °C 14,7 °C 1,4 km/h (1 Bft)
02.05.2026 02:00 13,3 °C 32 % 1024,1 hPa 0,0 l/m² 0,0 km/h (0 Bft) N 0,00 h -3,1 °C 13,3 °C 0,0 km/h (0 Bft)
02.05.2026 03:00 11,7 °C 33 % 1023,8 hPa 0,0 l/m² 0,0 km/h (0 Bft) N 0,00 h -4,0 °C 11,7 °C 0,1 km/h (0 Bft)
02.05.2026 04:00 11,6 °C 36 % 1023,5 hPa 0,0 l/m² 0,0 km/h (0 Bft) N 0,00 h -3,1 °C 11,6 °C 0,1 km/h (0 Bft)
02.05.2026 05:00 11,7 °C 37 % 1023,3 hPa 0,0 l/m² 0,1 km/h (0 Bft) N 0,00 h -2,6 °C 11,7 °C 0,3 km/h (0 Bft)
02.05.2026 06:00 12,0 °C 38 % 1023,4 hPa 0,0 l/m² 0,1 km/h (0 Bft) N 0,00 h -1,9 °C 12,0 °C 0,0 km/h (0 Bft)
02.05.2026 07:00 12,3 °C 42 % 1023,5 hPa 0,0 l/m² 0,0 km/h (0 Bft) N 0,00 h -0,2 °C 12,3 °C 0,0 km/h (0 Bft)
02.05.2026 08:00 15,2 °C 40 % 1023,6 hPa 0,0 l/m² 0,3 km/h (0 Bft) N 0,00 h 1,6 °C 15,2 °C 0,9 km/h (0 Bft)
02.05.2026 09:00 17,3 °C 37 % 1023,6 hPa 0,0 l/m² 1,1 km/h (1 Bft) W-SW 0,00 h 2,5 °C 17,3 °C 1,6 km/h (1 Bft)
02.05.2026 10:00 18,4 °C 36 % 1023,8 hPa 0,0 l/m² 1,7 km/h (1 Bft) W-SW 0,00 h 3,1 °C 18,4 °C 2,3 km/h (1 Bft)
02.05.2026 11:00 20,1 °C 34 % 1023,6 hPa 0,0 l/m² 2,2 km/h (1 Bft) W-SW 0,00 h 3,7 °C 20,1 °C 3,2 km/h (1 Bft)
02.05.2026 12:00 21,6 °C 31 % 1023,2 hPa 0,0 l/m² 2,1 km/h (1 Bft) S 0,00 h 3,7 °C 21,6 °C 2,9 km/h (1 Bft)
02.05.2026 13:00 22,8 °C 29 % 1022,7 hPa 0,0 l/m² 2,4 km/h (1 Bft) W 0,33 h 3,8 °C 22,8 °C 3,5 km/h (1 Bft)
02.05.2026 14:00 23,7 °C 28 % 1022,1 hPa 0,0 l/m² 2,7 km/h (1 Bft) W-SW 1,00 h 3,9 °C 23,7 °C 3,6 km/h (1 Bft)
02.05.2026 15:00 24,3 °C 26 % 1021,5 hPa 0,0 l/m² 2,2 km/h (1 Bft) NW 1,00 h 3,5 °C 24,3 °C 3,0 km/h (1 Bft)
02.05.2026 16:00 24,8 °C 25 % 1021,2 hPa 0,0 l/m² 1,4 km/h (1 Bft) NW 1,00 h 3,5 °C 24,8 °C 2,2 km/h (1 Bft)
02.05.2026 17:00 25,0 °C 25 % 1020,8 hPa 0,0 l/m² 0,5 km/h (0 Bft) SW 1,00 h 3,6 °C 25,0 °C 1,0 km/h (0 Bft)
02.05.2026 18:00 24,3 °C 25 % 1020,5 hPa 0,0 l/m² 0,1 km/h (0 Bft) N 1,00 h 3,0 °C 24,3 °C 0,2 km/h (0 Bft)
02.05.2026 19:00 21,2 °C 25 % 1020,4 hPa 0,0 l/m² 0,0 km/h (0 Bft) N 0,40 h 0,4 °C 21,2 °C 0,0 km/h (0 Bft)
02.05.2026 20:00 16,9 °C 27 % 1020,5 hPa 0,0 l/m² 0,0 km/h (0 Bft) N 0,00 h -2,0 °C 16,9 °C 0,0 km/h (0 Bft)
02.05.2026 21:00 15,8 °C 30 % 1020,8 hPa 0,0 l/m² 0,0 km/h (0 Bft) N 0,00 h -1,7 °C 15,8 °C 0,1 km/h (0 Bft)
02.05.2026 22:00 15,2 °C 30 % 1020,4 hPa 0,0 l/m² 0,0 km/h (0 Bft) N 0,00 h -2,2 °C 15,2 °C 0,0 km/h (0 Bft)
02.05.2026 23:00 15,1 °C 31 % 1020,0 hPa 0,0 l/m² 0,3 km/h (0 Bft) N 0,00 h -2,0 °C 15,1 °C 0,6 km/h (0 Bft)
03.05.2026 00:00 16,2 °C 31 % 1019,7 hPa 0,0 l/m² 1,1 km/h (1 Bft) NW 0,00 h -0,9 °C 16,2 °C 2,1 km/h (1 Bft)
03.05.2026 01:00 17,2 °C 31 % 1019,1 hPa 0,0 l/m² 1,5 km/h (1 Bft) W 0,00 h -0,1 °C 17,2 °C 1,9 km/h (1 Bft)
03.05.2026 02:00 17,2 °C 31 % 1018,5 hPa 0,0 l/m² 0,9 km/h (0 Bft) SO 0,00 h -0,1 °C 17,2 °C 1,1 km/h (1 Bft)
03.05.2026 03:00 16,4 °C 31 % 1018,1 hPa 0,0 l/m² 0,7 km/h (0 Bft) SO 0,00 h -0,8 °C 16,4 °C 1,3 km/h (1 Bft)
03.05.2026 04:00 14,8 °C 31 % 1018,0 hPa 0,0 l/m² 0,2 km/h (0 Bft) N 0,00 h -2,2 °C 14,8 °C 0,1 km/h (0 Bft)
03.05.2026 05:00 10,1 °C 40 % 1018,2 hPa 0,0 l/m² 0,0 km/h (0 Bft) N 0,00 h -3,0 °C 10,1 °C 0,0 km/h (0 Bft)
03.05.2026 06:00 8,5 °C 49 % 1018,4 hPa 0,0 l/m² 0,0 km/h (0 Bft) N 0,00 h -1,6 °C 8,5 °C 0,0 km/h (0 Bft)
03.05.2026 07:00 8,7 °C 55 % 1018,5 hPa 0,0 l/m² 0,0 km/h (0 Bft) N 0,00 h 0,1 °C 8,7 °C 0,0 km/h (0 Bft)
03.05.2026 08:00 10,9 °C 53 % 1018,6 hPa 0,0 l/m² 0,0 km/h (0 Bft) N 0,00 h 1,7 °C 10,9 °C 0,0 km/h (0 Bft)
03.05.2026 09:00 14,8 °C 51 % 1019,0 hPa 0,0 l/m² 0,6 km/h (0 Bft) N-NO 0,00 h 4,8 °C 14,8 °C 0,9 km/h (0 Bft)
03.05.2026 10:00 19,7 °C 46 % 1018,6 hPa 0,0 l/m² 0,8 km/h (0 Bft) S 0,00 h 7,8 °C 19,7 °C 1,5 km/h (1 Bft)
03.05.2026 11:00 22,7 °C 42 % 1018,5 hPa 0,0 l/m² 1,1 km/h (1 Bft) S 0,00 h 9,0 °C 22,7 °C 1,7 km/h (1 Bft)
03.05.2026 12:00 24,5 °C 36 % 1018,3 hPa 0,0 l/m² 2,3 km/h (1 Bft) SW 0,00 h 8,6 °C 24,5 °C 3,1 km/h (1 Bft)
03.05.2026 13:00 25,6 °C 34 % 1017,8 hPa 0,0 l/m² 2,1 km/h (1 Bft) S 0,33 h 8,4 °C 25,6 °C 2,7 km/h (1 Bft)
03.05.2026 14:00 26,4 °C 32 % 1017,2 hPa 0,0 l/m² 2,1 km/h (1 Bft) S 1,00 h 8,6 °C 26,4 °C 3,2 km/h (1 Bft)
03.05.2026 15:00 26,9 °C 32 % 1016,8 hPa 0,0 l/m² 1,7 km/h (1 Bft) S 1,00 h 8,6 °C 26,9 °C 2,4 km/h (1 Bft)
03.05.2026 16:00 26,8 °C 31 % 1016,5 hPa 0,0 l/m² 1,8 km/h (1 Bft) S 1,00 h 8,0 °C 26,8 °C 2,4 km/h (1 Bft)
03.05.2026 17:00 26,2 °C 29 % 1016,5 hPa 0,0 l/m² 1,3 km/h (1 Bft) S 1,00 h 6,7 °C 26,2 °C 2,2 km/h (1 Bft)
03.05.2026 18:00 24,9 °C 27 % 1016,2 hPa 0,0 l/m² 1,1 km/h (1 Bft) S 1,00 h 4,8 °C 24,9 °C 1,9 km/h (1 Bft)
03.05.2026 19:00 22,5 °C 27 % 1016,4 hPa 0,0 l/m² 0,3 km/h (0 Bft) N 0,37 h 2,4 °C 22,5 °C 0,5 km/h (0 Bft)
03.05.2026 20:00 18,8 °C 27 % 1016,7 hPa 0,0 l/m² 0,0 km/h (0 Bft) N 0,00 h -0,4 °C 18,8 °C 0,0 km/h (0 Bft)
03.05.2026 21:00 17,5 °C 31 % 1016,8 hPa 0,0 l/m² 0,5 km/h (0 Bft) W 0,00 h 0,0 °C 17,5 °C 1,4 km/h (1 Bft)
03.05.2026 22:00 18,6 °C 31 % 1016,9 hPa 0,0 l/m² 1,4 km/h (1 Bft) S 0,00 h 1,1 °C 18,6 °C 2,1 km/h (1 Bft)
03.05.2026 23:00 18,6 °C 31 % 1016,6 hPa 0,0 l/m² 2,2 km/h (1 Bft) W-NW 0,00 h 1,1 °C 18,6 °C 2,9 km/h (1 Bft)
Min-Datum _ 30.04.26 27.04.26 03.05.26 - 27.04.26 - - 30.04.26 30.04.26 27.04.26
_ Min-Zeit 05:32 00:00 18:34 - 00:00 - - 05:32 05:32 00:00
Minimum _ 2,0 °C 25 % 1016,0 hPa - 0,0 km/h (0 Bft) - - -15,9 °C 2,0 °C 0,0 km/h (0 Bft)
Max-Datum _ 03.05.26 03.05.26 30.04.26 27.04.26 30.04.26 - 27.04.26 03.05.26 03.05.26 30.04.26
_ Max-Zeit 15:34 07:12 07:54 00:00 12:24 - 13:40 11:48 15:34 12:25
Maximum _ 27,1 °C 56 % 1028,5 hPa 0,0 l/m² 4,7 km/h
W (1 Bft)
- 0,02 h 9,5 °C 27,1 °C 16,4 km/h
W (3 Bft)
Durchschnitt _ 13,6 °C 30 % 1022,4 hPa #0,0 l/m² 0,9 km/h (0 Bft) W-SW #39:50 h -4,0 °C 13,6 °C 1,3 km/h (1 Bft)